Time;durP1;ratioP1;P1;durP2;ratioP2;P2;SDS_P1;SDS_P2;PMS_P1;PMS_P2;Temp;Humidity;BMP_temperature;BMP_pressure;BME280_temperature;BME280_humidity;BME280_pressure;Samples;Min_cycle;Max_cycle;Signal;HPM_P1;HPM_P2
2022/11/08 00:01:41;;;;;;;;;;;12.80;99.90;;;;;;5044256;28;19917;-86
2022/11/08 00:04:09;;;;;;;;;;;12.90;99.90;;;;;;5043355;28;20289;-85
2022/11/08 00:14:47;;;;;;;;;;;13.00;99.90;;;;;;5078641;28;19947;-83
2022/11/08 00:17:13;;;;;;;;;;;13.00;99.90;;;;;;5078475;28;20283;-85
2022/11/08 00:19:40;;;;;;;;;;;13.00;99.90;;;;;;5061051;28;19908;-84
2022/11/08 00:22:05;;;;;;;;;;;13.10;99.90;;;;;;5079299;28;19912;-85
2022/11/08 00:24:30;;;;;;;;;;;13.20;99.90;;;;;;5062482;28;19913;-85
2022/11/08 00:26:56;;;;;;;;;;;13.20;99.90;;;;;;5079563;28;19948;-85
2022/11/08 00:29:21;;;;;;;;;;;13.20;99.90;;;;;;5062163;28;19912;-85
2022/11/08 00:31:47;;;;;;;;;;;13.30;99.90;;;;;;5078249;28;20319;-83
2022/11/08 00:34:12;;;;;;;;;;;13.30;99.90;;;;;;5079264;28;19909;-84
2022/11/08 00:36:38;;;;;;;;;;;13.40;99.90;;;;;;5079319;28;19916;-83
2022/11/08 00:39:03;;;;;;;;;;;13.40;99.90;;;;;;5060208;28;19915;-83
2022/11/08 00:41:29;;;;;;;;;;;13.40;99.90;;;;;;5079655;28;20363;-85
2022/11/08 00:43:54;;;;;;;;;;;13.50;99.90;;;;;;5079129;28;20356;-85
2022/11/08 00:46:20;;;;;;;;;;;13.50;99.90;;;;;;5060996;28;20335;-83
2022/11/08 00:48:45;;;;;;;;;;;13.50;99.90;;;;;;5077306;28;19912;-83
2022/11/08 00:51:11;;;;;;;;;;;13.50;99.90;;;;;;5059419;28;19908;-84
2022/11/08 00:53:37;;;;;;;;;;;13.60;99.90;;;;;;5076871;28;19908;-83
2022/11/08 00:56:03;;;;;;;;;;;13.60;99.90;;;;;;5076921;28;19909;-85
2022/11/08 00:58:29;;;;;;;;;;;13.60;99.90;;;;;;5058891;28;19915;-84
2022/11/08 01:00:55;;;;;;;;;;;13.70;99.90;;;;;;5059050;28;19913;-84
2022/11/08 01:03:20;;;;;;;;;;;13.70;99.90;;;;;;5058970;28;19931;-84
2022/11/08 01:05:46;;;;;;;;;;;13.80;99.90;;;;;;5075725;28;19995;-83
2022/11/08 01:08:12;;;;;;;;;;;13.80;99.90;;;;;;5077863;28;19909;-84
2022/11/08 01:10:41;;;;;;;;;;;13.80;99.90;;;;;;5076898;28;19923;-85
2022/11/08 01:13:07;;;;;;;;;;;13.90;99.90;;;;;;5076836;28;19909;-83
2022/11/08 01:15:37;;;;;;;;;;;13.90;99.90;;;;;;5076515;28;19915;-83
2022/11/08 01:18:03;;;;;;;;;;;14.00;99.90;;;;;;5074383;28;19966;-82
2022/11/08 01:20:28;;;;;;;;;;;14.00;99.90;;;;;;5077401;28;20049;-84
2022/11/08 01:22:54;;;;;;;;;;;14.00;99.90;;;;;;5059403;28;19978;-83
2022/11/08 01:25:19;;;;;;;;;;;14.00;99.90;;;;;;5060253;28;20056;-83
2022/11/08 01:27:45;;;;;;;;;;;14.00;99.90;;;;;;5077837;28;19912;-83
2022/11/08 01:30:10;;;;;;;;;;;14.00;99.90;;;;;;5078494;28;20376;-83
2022/11/08 01:32:36;;;;;;;;;;;14.00;99.90;;;;;;5059784;28;19909;-82
2022/11/08 01:35:01;;;;;;;;;;;14.00;99.90;;;;;;5058970;28;19936;-83
2022/11/08 01:37:27;;;;;;;;;;;14.00;99.90;;;;;;5076824;28;19912;-82
2022/11/08 01:39:52;;;;;;;;;;;14.00;99.90;;;;;;5076914;28;19915;-84
2022/11/08 01:42:25;;;;;;;;;;;14.00;99.90;;;;;;5058861;28;20034;-83
2022/11/08 01:44:58;;;;;;;;;;;14.00;99.90;;;;;;5059119;28;19915;-82
2022/11/08 01:47:24;;;;;;;;;;;13.90;99.90;;;;;;5057663;28;19908;-83
2022/11/08 01:49:50;;;;;;;;;;;13.90;99.90;;;;;;5076553;28;19968;-84
2022/11/08 01:52:24;;;;;;;;;;;13.80;99.90;;;;;;5058423;28;19927;-82
2022/11/08 01:54:55;;;;;;;;;;;13.80;99.90;;;;;;5076614;28;20283;-84
2022/11/08 01:57:28;;;;;;;;;;;13.80;99.90;;;;;;5075863;28;20368;-84
2022/11/08 01:59:56;;;;;;;;;;;13.80;99.90;;;;;;5075691;28;19991;-83
2022/11/08 02:02:21;;;;;;;;;;;13.70;99.90;;;;;;5057362;28;19932;-82
2022/11/08 02:04:47;;;;;;;;;;;13.70;99.90;;;;;;5058266;28;20307;-84
2022/11/08 02:07:14;;;;;;;;;;;13.60;99.90;;;;;;5058091;28;19916;-84
2022/11/08 02:09:42;;;;;;;;;;;13.60;99.90;;;;;;5057704;28;19956;-85
2022/11/08 02:12:08;;;;;;;;;;;13.60;99.90;;;;;;5057743;28;19916;-84
2022/11/08 02:14:35;;;;;;;;;;;13.50;99.90;;;;;;5057585;28;19931;-84
2022/11/08 02:17:00;;;;;;;;;;;13.40;99.90;;;;;;5075458;28;19912;-83
2022/11/08 02:19:32;;;;;;;;;;;13.40;99.90;;;;;;5057480;28;20404;-84
2022/11/08 02:22:00;;;;;;;;;;;13.40;99.90;;;;;;5075088;28;19909;-84
2022/11/08 02:24:25;;;;;;;;;;;13.30;99.90;;;;;;5057286;28;19918;-84
2022/11/08 02:26:51;;;;;;;;;;;13.30;99.90;;;;;;5056980;28;19908;-83
2022/11/08 02:29:35;;;;;;;;;;;13.20;99.90;;;;;;5077082;28;19916;-84
2022/11/08 02:32:02;;;;;;;;;;;13.20;99.90;;;;;;5079198;28;19970;-82
2022/11/08 02:34:27;;;;;;;;;;;13.20;99.90;;;;;;5079091;28;20352;-85
2022/11/08 02:36:53;;;;;;;;;;;13.10;99.90;;;;;;5078981;28;19961;-85
2022/11/08 02:39:18;;;;;;;;;;;13.10;99.90;;;;;;5061244;28;19915;-85
2022/11/08 02:41:43;;;;;;;;;;;13.00;99.90;;;;;;5060731;28;20502;-84
2022/11/08 02:44:09;;;;;;;;;;;13.00;99.90;;;;;;5079382;28;19908;-83
2022/11/08 02:46:34;;;;;;;;;;;13.00;99.90;;;;;;5079093;28;19912;-83
2022/11/08 02:49:00;;;;;;;;;;;13.00;99.90;;;;;;5061055;28;19909;-84
2022/11/08 02:51:25;;;;;;;;;;;13.00;99.90;;;;;;5079394;28;20340;-82
2022/11/08 02:53:51;;;;;;;;;;;12.90;99.90;;;;;;5060773;28;19909;-84
2022/11/08 02:56:16;;;;;;;;;;;12.90;99.90;;;;;;5078839;28;19908;-84
2022/11/08 02:58:42;;;;;;;;;;;12.90;99.90;;;;;;5061519;28;19923;-83
2022/11/08 03:01:07;;;;;;;;;;;12.80;99.90;;;;;;5078403;28;20021;-84
2022/11/08 03:03:32;;;;;;;;;;;12.80;99.90;;;;;;5060366;28;19909;-83
2022/11/08 03:05:59;;;;;;;;;;;12.80;99.90;;;;;;5060865;28;19908;-85
2022/11/08 03:08:24;;;;;;;;;;;12.80;99.90;;;;;;5079240;28;19958;-84
2022/11/08 03:10:49;;;;;;;;;;;12.80;99.90;;;;;;5061576;28;19916;-84
2022/11/08 03:13:15;;;;;;;;;;;12.80;99.90;;;;;;5080013;28;19915;-84
2022/11/08 03:15:40;;;;;;;;;;;12.70;99.90;;;;;;5060798;28;19916;-83
2022/11/08 03:18:06;;;;;;;;;;;12.70;99.90;;;;;;5060802;28;20388;-82
2022/11/08 03:20:31;;;;;;;;;;;12.70;99.90;;;;;;5060969;28;19932;-84
2022/11/08 03:22:58;;;;;;;;;;;12.70;99.90;;;;;;5078626;28;19909;-85
2022/11/08 03:25:24;;;;;;;;;;;12.60;99.90;;;;;;5079304;28;19920;-84
2022/11/08 03:27:49;;;;;;;;;;;12.60;99.90;;;;;;5061098;28;19913;-84
2022/11/08 03:30:15;;;;;;;;;;;12.60;99.90;;;;;;5078708;28;20387;-85
2022/11/08 03:32:42;;;;;;;;;;;12.50;99.90;;;;;;5078200;28;19991;-84
2022/11/08 03:35:07;;;;;;;;;;;12.50;99.90;;;;;;5077554;28;19952;-85
2022/11/08 03:37:33;;;;;;;;;;;12.50;99.90;;;;;;5060638;28;19920;-84
2022/11/08 03:39:58;;;;;;;;;;;12.50;99.90;;;;;;5060573;28;19908;-85
2022/11/08 03:42:24;;;;;;;;;;;12.50;99.90;;;;;;5078071;28;20407;-85
2022/11/08 03:44:49;;;;;;;;;;;12.50;99.90;;;;;;5079415;28;19940;-84
2022/11/08 03:47:15;;;;;;;;;;;12.50;99.90;;;;;;5060543;28;19919;-84
2022/11/08 03:49:40;;;;;;;;;;;12.40;99.90;;;;;;5060618;28;19912;-83
2022/11/08 03:52:06;;;;;;;;;;;12.40;99.90;;;;;;5059838;28;19918;-85
2022/11/08 03:54:31;;;;;;;;;;;12.40;99.90;;;;;;5078550;28;19935;-84
2022/11/08 03:56:57;;;;;;;;;;;12.40;99.90;;;;;;5060619;28;19920;-84
2022/11/08 03:59:22;;;;;;;;;;;12.30;99.90;;;;;;5079614;28;20007;-85
2022/11/08 04:01:47;;;;;;;;;;;12.30;99.90;;;;;;5062050;28;19965;-85
2022/11/08 04:04:13;;;;;;;;;;;12.30;99.90;;;;;;5080158;28;19909;-84
2022/11/08 04:06:38;;;;;;;;;;;12.20;99.90;;;;;;5079971;28;19908;-85
2022/11/08 04:09:04;;;;;;;;;;;12.20;99.90;;;;;;5060589;28;19957;-85
2022/11/08 04:16:58;;;;;;;;;;;12.10;99.90;;;;;;5078280;28;19919;-84
2022/11/08 04:22:09;;;;;;;;;;;12.00;99.90;;;;;;5078507;28;19916;-84
2022/11/08 04:24:34;;;;;;;;;;;12.00;99.90;;;;;;5060560;28;19935;-83
2022/11/08 04:27:01;;;;;;;;;;;12.00;99.90;;;;;;5077893;28;19940;-84
2022/11/08 04:29:27;;;;;;;;;;;11.90;99.90;;;;;;5060490;28;19908;-84
2022/11/08 04:31:52;;;;;;;;;;;11.90;99.90;;;;;;5060737;28;19908;-84
2022/11/08 04:34:18;;;;;;;;;;;11.90;99.90;;;;;;5060690;28;19913;-84
2022/11/08 04:36:43;;;;;;;;;;;11.90;99.90;;;;;;5077698;28;19984;-84
2022/11/08 04:39:09;;;;;;;;;;;11.80;99.90;;;;;;5060217;28;19909;-85
2022/11/08 04:41:34;;;;;;;;;;;11.80;99.90;;;;;;5078478;28;19999;-84
2022/11/08 04:44:00;;;;;;;;;;;11.70;99.90;;;;;;5078109;28;19915;-83
2022/11/08 04:46:26;;;;;;;;;;;11.60;99.90;;;;;;5059794;28;20291;-84
2022/11/08 04:48:52;;;;;;;;;;;11.60;99.90;;;;;;5077996;28;19916;-85
2022/11/08 04:51:19;;;;;;;;;;;11.50;99.90;;;;;;5078345;28;20372;-83
2022/11/08 04:53:45;;;;;;;;;;;11.40;99.90;;;;;;5077808;28;19979;-83
2022/11/08 04:56:14;;;;;;;;;;;11.40;99.90;;;;;;5060029;28;19909;-83
2022/11/08 04:58:40;;;;;;;;;;;11.40;99.90;;;;;;5060283;28;19909;-85
2022/11/08 05:01:07;;;;;;;;;;;11.40;99.90;;;;;;5077820;28;19919;-84
2022/11/08 05:03:32;;;;;;;;;;;11.40;99.90;;;;;;5059552;28;19912;-82
2022/11/08 05:06:02;;;;;;;;;;;11.40;99.90;;;;;;5077775;28;19916;-85
2022/11/08 05:08:28;;;;;;;;;;;11.40;99.90;;;;;;5061685;28;20318;-84
2022/11/08 05:10:58;;;;;;;;;;;11.40;99.90;;;;;;5060639;28;19920;-85
2022/11/08 05:13:24;;;;;;;;;;;11.40;99.90;;;;;;5078911;28;19908;-85
2022/11/08 05:15:49;;;;;;;;;;;11.40;99.90;;;;;;5078381;28;19972;-85
2022/11/08 05:18:14;;;;;;;;;;;11.40;99.90;;;;;;5059911;28;19916;-83
2022/11/08 05:23:24;;;;;;;;;;;11.40;99.90;;;;;;5077855;28;19916;-84
2022/11/08 05:25:50;;;;;;;;;;;11.40;99.90;;;;;;5059380;28;19909;-84
2022/11/08 05:28:16;;;;;;;;;;;11.40;99.90;;;;;;5077422;28;19909;-85
2022/11/08 05:30:41;;;;;;;;;;;11.40;99.90;;;;;;5077492;28;19999;-85
2022/11/08 05:33:07;;;;;;;;;;;11.40;99.90;;;;;;5059034;28;19916;-82
2022/11/08 05:35:33;;;;;;;;;;;11.40;99.90;;;;;;5058852;28;19909;-84
2022/11/08 05:37:58;;;;;;;;;;;11.50;99.90;;;;;;5059182;28;19913;-85
2022/11/08 05:40:24;;;;;;;;;;;11.50;99.90;;;;;;5077429;28;20003;-85
2022/11/08 05:42:51;;;;;;;;;;;11.50;99.90;;;;;;5059038;28;19916;-84
2022/11/08 05:45:17;;;;;;;;;;;11.50;99.90;;;;;;5059832;28;19958;-84
2022/11/08 05:47:43;;;;;;;;;;;11.40;99.90;;;;;;5059236;28;19912;-85
2022/11/08 05:50:08;;;;;;;;;;;11.40;99.90;;;;;;5077645;28;19909;-84
2022/11/08 05:52:34;;;;;;;;;;;11.40;99.90;;;;;;5077751;28;20273;-85
2022/11/08 05:54:59;;;;;;;;;;;11.40;99.90;;;;;;5059709;28;19908;-82
2022/11/08 05:57:25;;;;;;;;;;;11.40;99.90;;;;;;5077536;28;19916;-83
2022/11/08 05:59:50;;;;;;;;;;;11.40;99.90;;;;;;5059557;28;19909;-82
2022/11/08 06:02:16;;;;;;;;;;;11.40;99.90;;;;;;5077564;28;19908;-84
2022/11/08 06:04:42;;;;;;;;;;;11.40;99.90;;;;;;5056808;28;19908;-82
2022/11/08 06:07:07;;;;;;;;;;;11.40;99.90;;;;;;5055532;28;19958;-83
2022/11/08 06:09:33;;;;;;;;;;;11.40;99.90;;;;;;5056670;28;19916;-83
2022/11/08 06:11:58;;;;;;;;;;;11.40;99.90;;;;;;5087122;23;19945;-80
2022/11/08 06:14:24;;;;;;;;;;;11.40;99.90;;;;;;5092725;28;20296;-81
2022/11/08 06:16:49;;;;;;;;;;;11.40;99.90;;;;;;5074069;28;19942;-82
2022/11/08 06:19:15;;;;;;;;;;;11.40;99.90;;;;;;5092382;28;20002;-81
2022/11/08 06:21:40;;;;;;;;;;;11.50;99.90;;;;;;5092471;28;19909;-80
2022/11/08 06:24:06;;;;;;;;;;;11.50;99.90;;;;;;5092512;28;19950;-80
2022/11/08 06:26:32;;;;;;;;;;;11.50;99.90;;;;;;5092240;28;20416;-80
2022/11/08 06:28:57;;;;;;;;;;;11.50;99.90;;;;;;5092449;28;20371;-80
2022/11/08 06:31:22;;;;;;;;;;;11.50;99.90;;;;;;5092421;28;20270;-80
2022/11/08 06:33:49;;;;;;;;;;;11.50;99.90;;;;;;5092523;28;19912;-81
2022/11/08 06:36:14;;;;;;;;;;;11.50;99.90;;;;;;5092136;28;19922;-80
2022/11/08 06:38:40;;;;;;;;;;;11.40;99.90;;;;;;5092412;28;20402;-80
2022/11/08 06:41:05;;;;;;;;;;;11.40;99.90;;;;;;5092205;28;19915;-80
2022/11/08 06:43:31;;;;;;;;;;;11.40;99.90;;;;;;5092380;28;19943;-81
2022/11/08 06:46:01;;;;;;;;;;;11.40;99.90;;;;;;5091762;28;19912;-81
2022/11/08 06:48:26;;;;;;;;;;;11.40;99.90;;;;;;5092330;28;19915;-80
2022/11/08 06:50:52;;;;;;;;;;;11.40;99.90;;;;;;5092273;28;19908;-77
2022/11/08 06:53:17;;;;;;;;;;;11.40;99.90;;;;;;5092293;28;19912;-76
2022/11/08 06:55:42;;;;;;;;;;;11.40;99.90;;;;;;5092101;28;19948;-78
2022/11/08 06:58:08;;;;;;;;;;;11.40;99.90;;;;;;5092132;28;19912;-77
2022/11/08 07:00:34;;;;;;;;;;;11.50;99.90;;;;;;5092322;28;19914;-80
2022/11/08 07:03:00;;;;;;;;;;;11.50;99.90;;;;;;5074400;28;19954;-80
2022/11/08 07:05:26;;;;;;;;;;;11.60;99.90;;;;;;5091736;28;19908;-80
2022/11/08 07:07:52;;;;;;;;;;;11.60;99.90;;;;;;5092443;28;19908;-81
2022/11/08 07:10:19;;;;;;;;;;;11.70;99.90;;;;;;5074943;28;20291;-80
2022/11/08 07:12:45;;;;;;;;;;;11.70;99.90;;;;;;5071977;28;20538;-80
2022/11/08 07:15:10;;;;;;;;;;;11.80;99.90;;;;;;5072072;28;19943;-80
2022/11/08 07:17:36;;;;;;;;;;;11.80;99.90;;;;;;5074748;28;19920;-80
2022/11/08 07:20:02;;;;;;;;;;;11.80;99.90;;;;;;5057491;28;19908;-80
2022/11/08 07:22:27;;;;;;;;;;;11.80;99.90;;;;;;5075288;28;19912;-81
2022/11/08 07:24:53;;;;;;;;;;;11.80;99.90;;;;;;5075424;28;19995;-80
2022/11/08 07:27:18;;;;;;;;;;;11.80;99.90;;;;;;5057108;28;19912;-80
2022/11/08 07:29:44;;;;;;;;;;;11.80;99.90;;;;;;5076471;28;20364;-79
2022/11/08 07:32:09;;;;;;;;;;;11.90;99.90;;;;;;5068404;28;19995;-82
2022/11/08 07:34:35;;;;;;;;;;;11.80;99.90;;;;;;5061371;28;19935;-82
2022/11/08 07:37:00;;;;;;;;;;;11.80;99.90;;;;;;5079142;28;20345;-83
2022/11/08 07:39:26;;;;;;;;;;;11.80;99.90;;;;;;5079263;28;19908;-81
2022/11/08 07:41:51;;;;;;;;;;;11.90;99.90;;;;;;5078198;28;19954;-81
2022/11/08 07:44:17;;;;;;;;;;;11.90;99.90;;;;;;5078886;28;19908;-81
2022/11/08 07:46:42;;;;;;;;;;;11.90;99.90;;;;;;5060404;28;19915;-79
2022/11/08 07:49:07;;;;;;;;;;;12.00;99.90;;;;;;5078772;28;20603;-80
2022/11/08 07:51:33;;;;;;;;;;;12.10;99.90;;;;;;5060669;28;19915;-81
2022/11/08 07:53:59;;;;;;;;;;;12.10;99.90;;;;;;5077682;28;19931;-80
2022/11/08 07:56:24;;;;;;;;;;;12.20;99.90;;;;;;5077788;28;19908;-80
2022/11/08 07:58:52;;;;;;;;;;;12.20;99.90;;;;;;5078127;28;19995;-81
2022/11/08 08:01:17;;;;;;;;;;;12.40;99.90;;;;;;5077608;28;19912;-81
2022/11/08 08:03:43;;;;;;;;;;;12.50;99.90;;;;;;5077818;28;19908;-80
2022/11/08 08:06:08;;;;;;;;;;;12.60;99.90;;;;;;5075257;28;20549;-76
2022/11/08 08:08:34;;;;;;;;;;;12.80;99.90;;;;;;5074440;28;19930;-78
2022/11/08 08:10:59;;;;;;;;;;;12.90;99.90;;;;;;5074215;28;19922;-79
2022/11/08 08:13:25;;;;;;;;;;;13.10;99.90;;;;;;5056437;28;19909;-79
2022/11/08 08:15:50;;;;;;;;;;;13.20;99.90;;;;;;5056060;28;19912;-77
2022/11/08 08:18:19;;;;;;;;;;;13.30;99.90;;;;;;5056215;28;19916;-77
2022/11/08 08:20:45;;;;;;;;;;;13.40;99.90;;;;;;5074150;28;19908;-77
2022/11/08 08:23:10;;;;;;;;;;;13.50;99.90;;;;;;5074532;28;19909;-77
2022/11/08 08:25:36;;;;;;;;;;;13.60;99.90;;;;;;5055899;28;19916;-78
2022/11/08 08:28:01;;;;;;;;;;;13.70;99.90;;;;;;5073750;28;19909;-77
2022/11/08 08:30:28;;;;;;;;;;;13.80;99.90;;;;;;5074139;28;20533;-77
2022/11/08 08:33:00;;;;;;;;;;;13.90;99.90;;;;;;5056000;28;19915;-77
2022/11/08 08:35:25;;;;;;;;;;;14.10;99.90;;;;;;5073766;28;20431;-79
2022/11/08 08:37:51;;;;;;;;;;;14.20;99.90;;;;;;5055863;28;20015;-77
2022/11/08 08:40:16;;;;;;;;;;;14.20;99.90;;;;;;5073725;28;19919;-78
2022/11/08 08:42:42;;;;;;;;;;;14.30;99.90;;;;;;5055665;28;19912;-77
2022/11/08 08:45:08;;;;;;;;;;;14.30;99.90;;;;;;5077219;28;19965;-77
2022/11/08 08:47:34;;;;;;;;;;;14.40;99.90;;;;;;5066423;28;19908;-80
2022/11/08 08:49:59;;;;;;;;;;;14.50;99.90;;;;;;5075062;28;19908;-77
2022/11/08 08:52:25;;;;;;;;;;;14.50;99.90;;;;;;5074233;28;19915;-77
2022/11/08 08:54:50;;;;;;;;;;;14.50;99.90;;;;;;5072225;28;19915;-77
2022/11/08 08:57:16;;;;;;;;;;;14.50;99.90;;;;;;5073138;28;20011;-77
2022/11/08 08:59:41;;;;;;;;;;;14.60;99.90;;;;;;5073507;28;20001;-79
2022/11/08 09:02:07;;;;;;;;;;;14.60;99.90;;;;;;5075858;28;19982;-77
2022/11/08 09:04:34;;;;;;;;;;;14.60;99.90;;;;;;5075117;28;19983;-75
2022/11/08 09:07:00;;;;;;;;;;;14.60;99.90;;;;;;5093100;28;20366;-77
2022/11/08 09:09:25;;;;;;;;;;;14.70;99.90;;;;;;5075190;28;19909;-75
2022/11/08 09:11:51;;;;;;;;;;;14.70;99.90;;;;;;5080587;28;19917;-78
2022/11/08 09:14:16;;;;;;;;;;;14.80;99.90;;;;;;5055182;28;19917;-75
2022/11/08 09:16:41;;;;;;;;;;;14.90;99.90;;;;;;5072329;28;20007;-76
2022/11/08 09:19:07;;;;;;;;;;;14.90;99.90;;;;;;5072992;28;19912;-78
2022/11/08 09:21:32;;;;;;;;;;;14.80;99.90;;;;;;5086216;28;20294;-76
2022/11/08 09:23:58;;;;;;;;;;;14.70;99.90;;;;;;5074730;28;19919;-76
2022/11/08 09:26:23;;;;;;;;;;;14.70;99.90;;;;;;5092627;28;19953;-77
2022/11/08 09:28:49;;;;;;;;;;;14.70;99.90;;;;;;5093005;28;20323;-75
2022/11/08 09:31:14;;;;;;;;;;;14.70;99.90;;;;;;5074643;28;19922;-75
2022/11/08 09:33:40;;;;;;;;;;;14.70;99.90;;;;;;5093101;28;19908;-76
2022/11/08 09:36:07;;;;;;;;;;;14.60;99.90;;;;;;5074623;28;19908;-78
2022/11/08 09:38:33;;;;;;;;;;;14.50;99.90;;;;;;5092207;28;19919;-76
2022/11/08 09:41:07;;;;;;;;;;;14.50;99.90;;;;;;5093023;28;19908;-77
2022/11/08 09:43:46;;;;;;;;;;;14.50;99.90;;;;;;5074831;28;19915;-77
2022/11/08 09:46:16;;;;;;;;;;;14.50;99.90;;;;;;5074734;28;19908;-77
2022/11/08 09:48:43;;;;;;;;;;;14.40;99.90;;;;;;5092919;28;19908;-77
2022/11/08 09:51:11;;;;;;;;;;;14.50;99.90;;;;;;5092846;28;19908;-78
2022/11/08 09:53:42;;;;;;;;;;;14.50;99.90;;;;;;5093041;28;19908;-77
2022/11/08 09:56:14;;;;;;;;;;;14.70;99.90;;;;;;5092747;28;19908;-77
2022/11/08 09:58:49;;;;;;;;;;;14.70;99.90;;;;;;5075041;28;19912;-80
2022/11/08 10:01:16;;;;;;;;;;;14.80;99.90;;;;;;5092751;28;20282;-80
2022/11/08 10:03:45;;;;;;;;;;;14.90;99.90;;;;;;5093764;28;19943;-79
2022/11/08 10:06:20;;;;;;;;;;;14.90;99.90;;;;;;5074920;28;19908;-79
2022/11/08 10:08:51;;;;;;;;;;;14.90;99.90;;;;;;5074710;28;19912;-78
2022/11/08 10:11:32;;;;;;;;;;;14.90;99.90;;;;;;5074648;28;20358;-80
2022/11/08 10:14:18;;;;;;;;;;;14.90;99.90;;;;;;5092773;28;19908;-80
2022/11/08 10:17:02;;;;;;;;;;;15.00;99.90;;;;;;5092474;28;19918;-79
2022/11/08 10:19:34;;;;;;;;;;;14.90;99.90;;;;;;5092817;28;19951;-79
2022/11/08 10:22:08;;;;;;;;;;;15.00;99.90;;;;;;5074414;28;20436;-78
2022/11/08 10:24:43;;;;;;;;;;;15.00;99.90;;;;;;5092461;28;19914;-79
2022/11/08 10:27:32;;;;;;;;;;;15.00;99.90;;;;;;5092224;28;19908;-79
2022/11/08 10:30:00;;;;;;;;;;;15.10;99.90;;;;;;5061081;28;19912;-78
2022/11/08 10:32:27;;;;;;;;;;;15.20;99.90;;;;;;5092437;28;19908;-78
2022/11/08 10:34:57;;;;;;;;;;;15.30;99.90;;;;;;5092551;28;20423;-80
2022/11/08 10:37:23;;;;;;;;;;;15.40;99.90;;;;;;5092322;28;19919;-78
2022/11/08 10:40:09;;;;;;;;;;;15.70;99.90;;;;;;5074270;28;19999;-79
2022/11/08 10:42:42;;;;;;;;;;;15.90;99.90;;;;;;5063299;28;19998;-80
2022/11/08 10:45:09;;;;;;;;;;;16.10;99.90;;;;;;5092320;28;19961;-79
2022/11/08 10:47:35;;;;;;;;;;;16.30;99.90;;;;;;5092224;28;20434;-80
2022/11/08 10:50:05;;;;;;;;;;;16.50;99.90;;;;;;5093368;28;19931;-78
2022/11/08 10:52:37;;;;;;;;;;;16.60;99.90;;;;;;5096369;28;19954;-80
2022/11/08 10:55:05;;;;;;;;;;;16.60;99.90;;;;;;5078466;28;19908;-78
2022/11/08 10:57:30;;;;;;;;;;;16.70;99.90;;;;;;5096020;28;19919;-79
2022/11/08 10:59:56;;;;;;;;;;;17.40;99.90;;;;;;5096361;28;19912;-78
2022/11/08 11:02:24;;;;;;;;;;;17.80;99.90;;;;;;5095955;28;19939;-78
2022/11/08 11:04:50;;;;;;;;;;;18.00;99.90;;;;;;5077929;28;19923;-78
2022/11/08 11:07:31;;;;;;;;;;;18.00;99.90;;;;;;5095715;28;19915;-78
2022/11/08 11:09:56;;;;;;;;;;;18.10;99.90;;;;;;5095889;28;19958;-79
2022/11/08 11:12:22;;;;;;;;;;;18.40;99.90;;;;;;5095732;28;19920;-78
2022/11/08 11:14:54;;;;;;;;;;;18.60;99.90;;;;;;5095789;28;19950;-79
2022/11/08 11:17:22;;;;;;;;;;;18.60;99.90;;;;;;5077413;28;20345;-79
2022/11/08 11:19:54;;;;;;;;;;;19.10;99.90;;;;;;5095961;28;19912;-79
2022/11/08 11:22:25;;;;;;;;;;;19.30;99.90;;;;;;5095568;28;19908;-80
2022/11/08 11:24:51;;;;;;;;;;;20.00;99.90;;;;;;5095689;28;19908;-79
2022/11/08 11:27:22;;;;;;;;;;;20.80;99.90;;;;;;5095455;28;19908;-78
2022/11/08 11:29:47;;;;;;;;;;;20.90;99.90;;;;;;5095672;28;19909;-80
2022/11/08 11:32:24;;;;;;;;;;;21.20;99.90;;;;;;5095454;28;19915;-79
2022/11/08 11:34:51;;;;;;;;;;;21.20;99.90;;;;;;5095465;28;19915;-79
2022/11/08 11:37:18;;;;;;;;;;;20.60;99.90;;;;;;5094935;28;20367;-79
2022/11/08 11:39:54;;;;;;;;;;;20.20;99.90;;;;;;5095615;28;19908;-80
2022/11/08 11:42:25;;;;;;;;;;;19.80;99.90;;;;;;5098236;28;19908;-77
2022/11/08 11:45:10;;;;;;;;;;;19.30;99.90;;;;;;5095825;28;20427;-77
2022/11/08 11:47:43;;;;;;;;;;;19.30;99.90;;;;;;5095655;28;20293;-78
2022/11/08 11:50:12;;;;;;;;;;;20.40;99.90;;;;;;5095722;28;20461;-78
2022/11/08 11:52:38;;;;;;;;;;;21.60;99.90;;;;;;5095691;28;20397;-78
2022/11/08 11:55:04;;;;;;;;;;;22.30;99.90;;;;;;5095391;28;19908;-78
2022/11/08 11:57:48;;;;;;;;;;;21.50;99.90;;;;;;5095454;28;20279;-78
2022/11/08 12:00:14;;;;;;;;;;;20.60;99.90;;;;;;5077414;28;19961;-78
2022/11/08 12:03:00;;;;;;;;;;;20.20;99.90;;;;;;5076438;28;19912;-78
2022/11/08 12:05:29;;;;;;;;;;;20.20;99.90;;;;;;5095115;28;19954;-77
2022/11/08 12:08:04;;;;;;;;;;;20.10;99.90;;;;;;5095317;28;19954;-77
2022/11/08 12:10:33;;;;;;;;;;;19.80;99.90;;;;;;5095345;28;20334;-77
2022/11/08 12:12:58;;;;;;;;;;;19.50;99.90;;;;;;5095358;23;19925;-81
2022/11/08 12:15:24;;;;;;;;;;;19.30;99.90;;;;;;5055242;28;20000;-82
2022/11/08 12:18:04;;;;;;;;;;;19.20;99.90;;;;;;5055192;28;20338;-81
2022/11/08 12:20:29;;;;;;;;;;;19.10;99.90;;;;;;5056847;28;19908;-82
2022/11/08 12:23:06;;;;;;;;;;;19.20;99.90;;;;;;5057184;28;19919;-80
2022/11/08 12:25:50;;;;;;;;;;;19.20;99.90;;;;;;5057129;28;19916;-82
2022/11/08 12:28:21;;;;;;;;;;;19.10;99.90;;;;;;5057434;28;19920;-81
2022/11/08 12:30:51;;;;;;;;;;;19.10;99.90;;;;;;5055127;28;19913;-82
2022/11/08 12:33:32;;;;;;;;;;;19.10;99.90;;;;;;5056845;28;19917;-80
2022/11/08 12:36:17;;;;;;;;;;;19.30;99.90;;;;;;5056557;28;19912;-81
2022/11/08 12:38:45;;;;;;;;;;;19.60;99.90;;;;;;5057288;28;19959;-86
2022/11/08 12:41:14;;;;;;;;;;;19.60;99.90;;;;;;5056654;28;19909;-84
2022/11/08 12:43:52;;;;;;;;;;;19.60;99.90;;;;;;5056368;28;19948;-82
2022/11/08 12:46:19;;;;;;;;;;;19.60;99.90;;;;;;5056280;28;19917;-81
2022/11/08 12:48:51;;;;;;;;;;;19.60;99.90;;;;;;5055297;28;19962;-86
2022/11/08 12:51:16;;;;;;;;;;;19.50;99.90;;;;;;5054550;28;19909;-84
2022/11/08 12:54:02;;;;;;;;;;;19.40;99.90;;;;;;5054216;28;20545;-82
2022/11/08 12:56:36;;;;;;;;;;;19.30;99.90;;;;;;5054863;28;19909;-81
2022/11/08 12:59:03;;;;;;;;;;;19.10;99.90;;;;;;5055514;28;20299;-80
2022/11/08 13:01:28;;;;;;;;;;;19.00;99.90;;;;;;5055279;28;19909;-80
2022/11/08 13:04:17;;;;;;;;;;;19.00;99.90;;;;;;5054722;28;19909;-80
2022/11/08 13:06:54;;;;;;;;;;;18.90;99.90;;;;;;5052743;28;19909;-80
2022/11/08 13:09:42;;;;;;;;;;;19.00;99.90;;;;;;5053075;28;19909;-80
2022/11/08 13:12:30;;;;;;;;;;;18.90;99.90;;;;;;5049166;28;20411;-80
2022/11/08 13:14:58;;;;;;;;;;;18.90;99.90;;;;;;5053722;28;19968;-80
2022/11/08 13:17:25;;;;;;;;;;;18.90;99.90;;;;;;5053443;28;20395;-80
2022/11/08 13:19:55;;;;;;;;;;;19.00;99.90;;;;;;5054296;28;19916;-80
2022/11/08 13:22:32;;;;;;;;;;;19.00;99.90;;;;;;5054526;28;19909;-80
2022/11/08 13:24:58;;;;;;;;;;;19.00;99.90;;;;;;5054246;28;20415;-80
2022/11/08 13:27:24;;;;;;;;;;;19.00;99.90;;;;;;5054704;28;20042;-81
2022/11/08 13:29:50;;;;;;;;;;;19.00;99.90;;;;;;5054224;28;19952;-80
2022/11/08 13:32:29;;;;;;;;;;;19.00;99.90;;;;;;5052933;28;19909;-80
2022/11/08 13:35:24;;;;;;;;;;;19.00;99.90;;;;;;5054128;28;19908;-80
2022/11/08 13:37:55;;;;;;;;;;;18.90;99.90;;;;;;5044802;28;20311;-80
2022/11/08 13:40:26;;;;;;;;;;;18.70;99.90;;;;;;5053991;28;19956;-80
2022/11/08 13:43:10;;;;;;;;;;;18.70;99.90;;;;;;5052605;28;19909;-79
2022/11/08 13:45:37;;;;;;;;;;;18.60;99.90;;;;;;5052711;28;20007;-80
2022/11/08 13:48:22;;;;;;;;;;;18.60;99.90;;;;;;5054118;28;19909;-80
2022/11/08 13:50:52;;;;;;;;;;;18.60;99.90;;;;;;5054152;28;19915;-80
2022/11/08 13:53:18;;;;;;;;;;;18.70;99.90;;;;;;5053540;28;19913;-80
2022/11/08 13:55:46;;;;;;;;;;;18.50;99.90;;;;;;5053699;28;19912;-79
2022/11/08 13:58:30;;;;;;;;;;;18.50;99.90;;;;;;5053923;28;19999;-80
2022/11/08 14:00:56;;;;;;;;;;;18.50;99.90;;;;;;5053266;28;19976;-79
2022/11/08 14:03:31;;;;;;;;;;;18.40;99.90;;;;;;5053907;28;19912;-80
2022/11/08 14:05:59;;;;;;;;;;;18.40;99.90;;;;;;5053208;28;19943;-80
2022/11/08 14:08:27;;;;;;;;;;;18.40;99.90;;;;;;5053424;28;20384;-79
2022/11/08 14:11:25;;;;;;;;;;;18.50;99.90;;;;;;5053895;28;19909;-80
2022/11/08 14:14:04;;;;;;;;;;;18.60;99.90;;;;;;5030284;28;20381;-79
2022/11/08 14:16:33;;;;;;;;;;;18.60;99.90;;;;;;5053510;28;19908;-80
2022/11/08 14:19:10;;;;;;;;;;;18.60;99.90;;;;;;5053507;28;19915;-80
2022/11/08 14:21:36;;;;;;;;;;;18.50;99.90;;;;;;5053334;28;19909;-80
2022/11/08 14:24:02;;;;;;;;;;;18.50;99.90;;;;;;5053556;28;20011;-79
2022/11/08 14:26:29;;;;;;;;;;;18.40;99.90;;;;;;5056929;28;19954;-80
2022/11/08 14:28:58;;;;;;;;;;;18.30;99.90;;;;;;5056190;28;20008;-79
2022/11/08 14:31:25;;;;;;;;;;;18.20;99.90;;;;;;5057805;28;19916;-79
2022/11/08 14:33:51;;;;;;;;;;;18.20;99.90;;;;;;5058438;28;19999;-80
2022/11/08 14:37:43;;;;;;;;;;;18.10;99.90;;;;;;5132341;27;19918;-78
2022/11/08 14:40:22;;;;;;;;;;;18.10;99.90;;;;;;5132288;27;20349;-77
2022/11/08 14:42:48;;;;;;;;;;;17.90;99.90;;;;;;5132426;27;19908;-79